Página principal
METAR-TAF:

METAR-TAF

Aeroportos :

Aeroporto Internacional de Vladivostok

Vladivostok, Rússia

latitude: 43-07N, longitude: 131-56E, altura: 184 m

Observação actual do tempo

O boletim foi feito há 37 minutos, às 15:30 UTC
Vento 2 kt com direcção variável
Temperatura -13°C
Humidade 66%
Pressão 1020 hPa
Visibilidade 10 km ou mais

METAR: UHWW 171530Z VRB01MPS 9999 NSC M13/M18 Q1020 R07R/0///70 NOSIG RMK QFE764

Hora: 02:07 (16:07 UTC)

Previsão

O boletim foi feito há 2 horas e 17 minutos, às 13:50 UTC
Previsão válida de 17 às 15 UTC a 18 às 15 UTC
Vento 6 kt de nor-noroeste
Visibilidade: 4500 m
bruma
A partir de 18 às 0000 UTC
Vento 6 kt de su-sudoeste
Visibilidade 10 km ou mais
Nuvens dispersasa uma altura de 3000 ft
Temporariamente
de 18 às 04 UTC a 18 às 09 UTC
Nuvens fragmentadasa uma altura de 2000 ft

TAF: UHWW 171350Z 1715/1815 33003MPS 4500 HZ NSC FM180000 20003MPS 9999 SCT030 TEMPO 1804/1809 BKN020

Observações e previsões do tempo de mais de 4000 aeroportos (mensagens METAR e TAF).

As estações disponíveis são os pontos amarelos e vermelhos sobre o mapa.

Mova o rato sobre o mapa para ver o nome da estação.

Depois clique no ponto para visualizar as observações e previsões meteorológicas.

Para alterar o mapa : clique nos botões verdes com uma cruz preta para aumentar o zoom; no botão verde com uma pitada de zoom; ou nas setas verdes para mapas adjacentes.


METAR-TAF: